Waubeka, Wisconsin
Current Conditions -  °F | °C
As of 6:15 AM on Friday 31 Oct 2014 (Local Time) from KETB Reporting Station
Broken Clouds Broken Clouds  
Wind Chill: 24°   Ceiling: 2900
Heat Index: 34°   Visibility: 10mi
Dew Point: 28°   Wind: 15mph
Humidity: 81%   Direction: 340°NNW
Pressure: 30.1"   Gusts: 22mph
Location:  43.4948°N, 87.9836°W
Report Text: KETB 311115Z AUTO 34013G19KT 10SM SCT023 BKN029 BKN036 01/M02 A3010 RMK AO2
Loading
Personal Weather Stations






























Interactive Weather Map
Tropical Storm Tracking
New forecast layout! Learn more

10-Day Weather Forecast

Advertisements
Track Severe Weather on mobile